sensor_id;sensor_type;location;lat;lon;timestamp;pressure;altitude;pressure_sealevel;temperature;humidity
46095;BME280;31832;50.746;-2.716;2024-02-21T00:01:15;-16075.52;;;6.61;100.00
46095;BME280;31832;50.746;-2.716;2024-02-21T00:03:38;-16066.72;;;6.16;100.00
46095;BME280;31832;50.746;-2.716;2024-02-21T00:06:04;-16071.32;;;6.63;100.00
46095;BME280;31832;50.746;-2.716;2024-02-21T00:08:29;-16088.31;;;7.02;100.00
46095;BME280;31832;50.746;-2.716;2024-02-21T00:10:55;-16072.33;;;6.44;100.00
46095;BME280;31832;50.746;-2.716;2024-02-21T00:13:21;-16081.26;;;6.90;100.00
46095;BME280;31832;50.746;-2.716;2024-02-21T00:15:46;-16070.62;;;6.12;100.00
46095;BME280;31832;50.746;-2.716;2024-02-21T00:18:11;-16065.34;;;6.09;100.00
46095;BME280;31832;50.746;-2.716;2024-02-21T00:20:37;-16062.92;;;6.20;100.00
46095;BME280;31832;50.746;-2.716;2024-02-21T00:23:03;-16062.29;;;6.17;100.00
46095;BME280;31832;50.746;-2.716;2024-02-21T00:25:28;-16054.96;;;5.80;100.00
46095;BME280;31832;50.746;-2.716;2024-02-21T00:27:53;-16053.06;;;5.94;100.00
46095;BME280;31832;50.746;-2.716;2024-02-21T00:30:19;-16065.52;;;6.34;100.00
46095;BME280;31832;50.746;-2.716;2024-02-21T00:32:45;-16062.31;;;6.41;100.00
46095;BME280;31832;50.746;-2.716;2024-02-21T00:35:10;-16054.02;;;5.99;100.00
46095;BME280;31832;50.746;-2.716;2024-02-21T00:37:35;-16073.58;;;6.27;100.00
46095;BME280;31832;50.746;-2.716;2024-02-21T00:40:01;-16075.34;;;6.12;100.00
46095;BME280;31832;50.746;-2.716;2024-02-21T00:42:26;-16062.00;;;6.39;100.00
46095;BME280;31832;50.746;-2.716;2024-02-21T00:44:51;-16064.46;;;6.28;100.00
46095;BME280;31832;50.746;-2.716;2024-02-21T00:47:17;-16059.16;;;6.25;100.00
46095;BME280;31832;50.746;-2.716;2024-02-21T00:49:42;-16072.54;;;6.46;100.00
46095;BME280;31832;50.746;-2.716;2024-02-21T00:52:08;-16069.37;;;6.29;100.00
46095;BME280;31832;50.746;-2.716;2024-02-21T00:54:33;-16073.75;;;6.52;100.00
46095;BME280;31832;50.746;-2.716;2024-02-21T00:56:58;-16069.14;;;6.28;100.00
46095;BME280;31832;50.746;-2.716;2024-02-21T00:59:24;-16066.00;;;6.60;100.00
46095;BME280;31832;50.746;-2.716;2024-02-21T01:01:49;-16047.85;;;5.67;100.00
46095;BME280;31832;50.746;-2.716;2024-02-21T01:04:14;-16046.83;;;5.62;100.00
46095;BME280;31832;50.746;-2.716;2024-02-21T01:06:40;-16044.85;;;5.52;100.00
46095;BME280;31832;50.746;-2.716;2024-02-21T01:09:06;-16053.62;;;5.97;100.00
46095;BME280;31832;50.746;-2.716;2024-02-21T01:11:31;-16062.17;;;5.93;100.00
46095;BME280;31832;50.746;-2.716;2024-02-21T01:13:56;-16054.60;;;6.02;100.00
46095;BME280;31832;50.746;-2.716;2024-02-21T01:16:21;-16051.22;;;5.60;100.00
46095;BME280;31832;50.746;-2.716;2024-02-21T01:18:46;-16044.07;;;5.48;100.00
46095;BME280;31832;50.746;-2.716;2024-02-21T01:21:12;-16047.78;;;5.67;100.00
46095;BME280;31832;50.746;-2.716;2024-02-21T01:23:37;-16051.16;;;5.84;100.00
46095;BME280;31832;50.746;-2.716;2024-02-21T01:26:03;-16048.56;;;5.47;100.00
46095;BME280;31832;50.746;-2.716;2024-02-21T01:28:27;-16050.14;;;5.79;100.00
46095;BME280;31832;50.746;-2.716;2024-02-21T01:30:52;-16049.99;;;5.78;100.00
46095;BME280;31832;50.746;-2.716;2024-02-21T01:33:18;-16041.56;;;5.59;100.00
46095;BME280;31832;50.746;-2.716;2024-02-21T01:35:44;-16049.89;;;5.54;100.00
46095;BME280;31832;50.746;-2.716;2024-02-21T01:38:09;-16058.25;;;5.96;100.00
46095;BME280;31832;50.746;-2.716;2024-02-21T01:40:35;-16040.14;;;5.28;100.00
46095;BME280;31832;50.746;-2.716;2024-02-21T01:43:00;-16039.28;;;5.47;100.00
46095;BME280;31832;50.746;-2.716;2024-02-21T01:45:26;-16051.06;;;5.83;100.00
46095;BME280;31832;50.746;-2.716;2024-02-21T01:47:51;-16050.18;;;5.79;100.00
46095;BME280;31832;50.746;-2.716;2024-02-21T01:50:17;-16049.63;;;5.76;100.00
46095;BME280;31832;50.746;-2.716;2024-02-21T01:52:43;-16047.19;;;5.64;100.00
46095;BME280;31832;50.746;-2.716;2024-02-21T01:55:08;-16043.46;;;5.45;100.00
46095;BME280;31832;50.746;-2.716;2024-02-21T01:57:33;-16047.98;;;5.68;100.00
46095;BME280;31832;50.746;-2.716;2024-02-21T01:59:58;-16056.13;;;6.09;100.00
46095;BME280;31832;50.746;-2.716;2024-02-21T02:02:23;-16048.65;;;5.71;100.00
46095;BME280;31832;50.746;-2.716;2024-02-21T02:04:49;-16078.88;;;6.78;100.00
46095;BME280;31832;50.746;-2.716;2024-02-21T02:07:14;-16052.65;;;5.92;100.00
46095;BME280;31832;50.746;-2.716;2024-02-21T02:09:40;-16073.88;;;7.00;100.00
46095;BME280;31832;50.746;-2.716;2024-02-21T02:12:06;-16062.98;;;6.21;100.00
46095;BME280;31832;50.746;-2.716;2024-02-21T02:14:30;-16053.06;;;5.94;100.00
46095;BME280;31832;50.746;-2.716;2024-02-21T02:16:55;-16045.40;;;5.78;100.00
46095;BME280;31832;50.746;-2.716;2024-02-21T02:19:21;-16052.31;;;5.66;100.00
46095;BME280;31832;50.746;-2.716;2024-02-21T02:21:51;-16068.09;;;6.47;100.00
46095;BME280;31832;50.746;-2.716;2024-02-21T02:24:12;-16061.90;;;6.15;100.00
46095;BME280;31832;50.746;-2.716;2024-02-21T02:26:37;-16064.35;;;6.04;100.00
46095;BME280;31832;50.746;-2.716;2024-02-21T02:29:02;-16065.54;;;6.10;100.00
46095;BME280;31832;50.746;-2.716;2024-02-21T02:31:27;-16057.98;;;5.95;100.00
46095;BME280;31832;50.746;-2.716;2024-02-21T02:33:52;-16072.70;;;6.46;100.00
46095;BME280;31832;50.746;-2.716;2024-02-21T02:36:18;-16074.43;;;6.55;100.00
46095;BME280;31832;50.746;-2.716;2024-02-21T02:38:44;-16069.17;;;6.28;100.00
46095;BME280;31832;50.746;-2.716;2024-02-21T02:41:09;-16057.55;;;5.93;100.00
46095;BME280;31832;50.746;-2.716;2024-02-21T02:43:36;-16057.57;;;6.17;100.00
46095;BME280;31832;50.746;-2.716;2024-02-21T02:46:03;-16052.85;;;5.69;100.00
46095;BME280;31832;50.746;-2.716;2024-02-21T02:48:25;-16067.79;;;6.21;100.00
46095;BME280;31832;50.746;-2.716;2024-02-21T02:50:50;-16061.15;;;5.87;100.00
46095;BME280;31832;50.746;-2.716;2024-02-21T02:53:16;-16062.38;;;5.94;100.00
46095;BME280;31832;50.746;-2.716;2024-02-21T02:55:41;-16064.69;;;6.05;100.00
46095;BME280;31832;50.746;-2.716;2024-02-21T02:58:07;-16056.35;;;6.11;100.00
46095;BME280;31832;50.746;-2.716;2024-02-21T03:00:32;-16063.33;;;6.22;100.00
46095;BME280;31832;50.746;-2.716;2024-02-21T03:02:58;-16069.15;;;6.28;100.00
46095;BME280;31832;50.746;-2.716;2024-02-21T03:05:22;-16065.53;;;6.10;100.00
46095;BME280;31832;50.746;-2.716;2024-02-21T03:07:48;-16076.66;;;6.43;100.00
46095;BME280;31832;50.746;-2.716;2024-02-21T03:10:14;-16058.40;;;5.97;100.00
46095;BME280;31832;50.746;-2.716;2024-02-21T03:12:40;-16066.99;;;6.17;100.00
46095;BME280;31832;50.746;-2.716;2024-02-21T03:15:06;-16064.51;;;6.04;100.00
46095;BME280;31832;50.746;-2.716;2024-02-21T03:17:29;-16066.51;;;6.15;100.00
46095;BME280;31832;50.746;-2.716;2024-02-21T03:19:55;-16071.10;;;6.38;100.00
46095;BME280;31832;50.746;-2.716;2024-02-21T03:22:20;-16069.81;;;6.32;100.00
46095;BME280;31832;50.746;-2.716;2024-02-21T03:24:45;-16076.12;;;6.64;100.00
46095;BME280;31832;50.746;-2.716;2024-02-21T03:27:10;-16056.51;;;5.64;100.00
46095;BME280;31832;50.746;-2.716;2024-02-21T03:29:36;-16069.93;;;6.56;100.00
46095;BME280;31832;50.746;-2.716;2024-02-21T03:32:01;-16072.70;;;6.46;100.00
46095;BME280;31832;50.746;-2.716;2024-02-21T03:34:26;-16078.82;;;7.02;100.00
46095;BME280;31832;50.746;-2.716;2024-02-21T03:36:52;-16070.82;;;6.37;100.00
46095;BME280;31832;50.746;-2.716;2024-02-21T03:39:18;-16065.20;;;6.32;100.00
46095;BME280;31832;50.746;-2.716;2024-02-21T03:41:43;-16058.94;;;6.00;100.00
46095;BME280;31832;50.746;-2.716;2024-02-21T03:44:08;-16050.94;;;5.83;100.00
46095;BME280;31832;50.746;-2.716;2024-02-21T03:46:34;-16056.95;;;6.14;100.00
46095;BME280;31832;50.746;-2.716;2024-02-21T03:48:59;-16055.43;;;5.82;100.00
46095;BME280;31832;50.746;-2.716;2024-02-21T03:51:25;-16058.50;;;5.98;100.00
46095;BME280;31832;50.746;-2.716;2024-02-21T03:53:50;-16055.58;;;6.07;100.00
46095;BME280;31832;50.746;-2.716;2024-02-21T03:56:15;-16059.20;;;6.25;100.00
46095;BME280;31832;50.746;-2.716;2024-02-21T03:58:41;-16045.68;;;5.56;100.00
46095;BME280;31832;50.746;-2.716;2024-02-21T04:01:06;-16050.14;;;5.79;100.00
46095;BME280;31832;50.746;-2.716;2024-02-21T04:03:31;-16044.07;;;5.48;100.00
46095;BME280;31832;50.746;-2.716;2024-02-21T04:05:56;-16052.60;;;5.91;100.00
46095;BME280;31832;50.746;-2.716;2024-02-21T04:08:22;-16062.90;;;6.44;100.00
46095;BME280;31832;50.746;-2.716;2024-02-21T04:10:47;-16053.66;;;5.97;100.00
46095;BME280;31832;50.746;-2.716;2024-02-21T04:13:12;-16058.47;;;6.21;100.00
46095;BME280;31832;50.746;-2.716;2024-02-21T04:15:38;-16068.34;;;6.24;100.00
46095;BME280;31832;50.746;-2.716;2024-02-21T04:18:03;-16063.85;;;6.25;100.00
46095;BME280;31832;50.746;-2.716;2024-02-21T04:20:28;-16078.49;;;7.24;100.00
46095;BME280;31832;50.746;-2.716;2024-02-21T04:22:53;-16051.63;;;5.63;100.00
46095;BME280;31832;50.746;-2.716;2024-02-21T04:25:18;-16067.48;;;6.67;100.00
46095;BME280;31832;50.746;-2.716;2024-02-21T04:27:43;-16066.32;;;6.14;100.00
46095;BME280;31832;50.746;-2.716;2024-02-21T04:30:09;-16044.93;;;5.52;100.00
46095;BME280;31832;50.746;-2.716;2024-02-21T04:32:34;-16048.46;;;5.70;100.00
46095;BME280;31832;50.746;-2.716;2024-02-21T04:34:59;-16047.31;;;5.64;100.00
46095;BME280;31832;50.746;-2.716;2024-02-21T04:37:24;-16059.88;;;5.81;100.00
46095;BME280;31832;50.746;-2.716;2024-02-21T04:39:51;-16053.79;;;5.74;100.00
46095;BME280;31832;50.746;-2.716;2024-02-21T04:42:15;-16053.62;;;5.73;100.00
46095;BME280;31832;50.746;-2.716;2024-02-21T04:44:40;-16056.77;;;6.13;100.00
46095;BME280;31832;50.746;-2.716;2024-02-21T04:47:07;-16041.29;;;5.34;100.00
46095;BME280;31832;50.746;-2.716;2024-02-21T04:49:31;-16061.08;;;6.35;100.00
46095;BME280;31832;50.746;-2.716;2024-02-21T04:51:57;-16051.74;;;5.63;100.00
46095;BME280;31832;50.746;-2.716;2024-02-21T04:54:22;-16052.34;;;5.66;100.00
46095;BME280;31832;50.746;-2.716;2024-02-21T04:56:47;-16059.00;;;6.24;100.00
46095;BME280;31832;50.746;-2.716;2024-02-21T04:59:13;-16058.92;;;6.24;100.00
46095;BME280;31832;50.746;-2.716;2024-02-21T05:01:38;-16048.69;;;5.71;100.00
46095;BME280;31832;50.746;-2.716;2024-02-21T05:04:04;-16058.25;;;6.20;100.00
46095;BME280;31832;50.746;-2.716;2024-02-21T05:06:29;-16058.43;;;5.97;100.00
46095;BME280;31832;50.746;-2.716;2024-02-21T05:08:54;-16068.35;;;6.48;100.00
46095;BME280;31832;50.746;-2.716;2024-02-21T05:11:19;-16059.04;;;6.00;100.00
46095;BME280;31832;50.746;-2.716;2024-02-21T05:13:45;-16053.52;;;5.96;100.00
46095;BME280;31832;50.746;-2.716;2024-02-21T05:16:10;-16052.78;;;5.92;100.00
46095;BME280;31832;50.746;-2.716;2024-02-21T05:18:36;-16069.96;;;6.80;100.00
46095;BME280;31832;50.746;-2.716;2024-02-21T05:21:01;-16079.29;;;6.80;100.00
46095;BME280;31832;50.746;-2.716;2024-02-21T05:23:27;-16073.72;;;6.52;100.00
46095;BME280;31832;50.746;-2.716;2024-02-21T05:25:52;-16063.32;;;6.46;100.00
46095;BME280;31832;50.746;-2.716;2024-02-21T05:28:18;-16056.29;;;5.86;100.00
46095;BME280;31832;50.746;-2.716;2024-02-21T05:30:43;-16050.03;;;5.78;100.00
46095;BME280;31832;50.746;-2.716;2024-02-21T05:33:09;-16051.72;;;5.87;100.00
46095;BME280;31832;50.746;-2.716;2024-02-21T05:35:35;-16046.99;;;5.63;100.00
46095;BME280;31832;50.746;-2.716;2024-02-21T05:37:59;-16049.89;;;5.78;100.00
46095;BME280;31832;50.746;-2.716;2024-02-21T05:40:24;-16046.60;;;5.61;100.00
46095;BME280;31832;50.746;-2.716;2024-02-21T05:42:49;-16042.11;;;5.62;100.00
46095;BME280;31832;50.746;-2.716;2024-02-21T05:45:15;-16053.15;;;5.94;100.00
46095;BME280;31832;50.746;-2.716;2024-02-21T05:47:41;-16049.62;;;6.00;100.00
46095;BME280;31832;50.746;-2.716;2024-02-21T05:50:07;-16059.29;;;6.26;100.00
46095;BME280;31832;50.746;-2.716;2024-02-21T05:52:32;-16043.94;;;5.47;100.00
46095;BME280;31832;50.746;-2.716;2024-02-21T05:54:58;-16047.90;;;5.67;100.00
46095;BME280;31832;50.746;-2.716;2024-02-21T05:57:23;-16046.24;;;5.59;100.00
46095;BME280;31832;50.746;-2.716;2024-02-21T05:59:49;-16053.89;;;5.98;100.00
46095;BME280;31832;50.746;-2.716;2024-02-21T06:02:14;-16043.20;;;5.43;100.00
46095;BME280;31832;50.746;-2.716;2024-02-21T06:04:40;-16033.13;;;5.40;100.00
46095;BME280;31832;50.746;-2.716;2024-02-21T06:07:05;-16043.28;;;5.44;100.00
46095;BME280;31832;50.746;-2.716;2024-02-21T06:09:30;-16038.79;;;5.69;100.00
46095;BME280;31832;50.746;-2.716;2024-02-21T06:11:56;-16046.73;;;6.09;100.00
46095;BME280;31832;50.746;-2.716;2024-02-21T06:14:21;-16038.08;;;5.41;100.00
46095;BME280;31832;50.746;-2.716;2024-02-21T06:16:47;-16043.46;;;5.69;100.00
46095;BME280;31832;50.746;-2.716;2024-02-21T06:19:13;-16048.55;;;5.71;100.00
46095;BME280;31832;50.746;-2.716;2024-02-21T06:21:38;-16057.22;;;6.15;100.00
46095;BME280;31832;50.746;-2.716;2024-02-21T06:24:05;-16043.13;;;5.67;100.00
46095;BME280;31832;50.746;-2.716;2024-02-21T06:26:30;-16052.19;;;5.89;100.00
46095;BME280;31832;50.746;-2.716;2024-02-21T06:28:55;-16049.90;;;5.78;100.00
46095;BME280;31832;50.746;-2.716;2024-02-21T06:31:21;-16042.54;;;5.88;100.00
46095;BME280;31832;50.746;-2.716;2024-02-21T06:33:45;-16036.79;;;5.58;100.00
46095;BME280;31832;50.746;-2.716;2024-02-21T06:36:11;-16042.29;;;5.86;100.00
46095;BME280;31832;50.746;-2.716;2024-02-21T06:38:36;-16040.45;;;5.77;100.00
46095;BME280;31832;50.746;-2.716;2024-02-21T06:41:02;-16030.30;;;5.49;100.00
46095;BME280;31832;50.746;-2.716;2024-02-21T06:43:28;-16030.50;;;5.50;100.00
46095;BME280;31832;50.746;-2.716;2024-02-21T06:45:59;-16041.46;;;5.58;100.00
46095;BME280;31832;50.746;-2.716;2024-02-21T06:48:18;-16053.60;;;5.97;100.00
46095;BME280;31832;50.746;-2.716;2024-02-21T06:50:43;-16053.40;;;5.72;100.00
46095;BME280;31832;50.746;-2.716;2024-02-21T06:53:09;-16048.74;;;5.72;100.00
46095;BME280;31832;50.746;-2.716;2024-02-21T06:55:34;-16042.82;;;5.65;100.00
46095;BME280;31832;50.746;-2.716;2024-02-21T06:58:00;-16053.52;;;5.96;100.00
46095;BME280;31832;50.746;-2.716;2024-02-21T07:00:25;-16044.53;;;5.50;100.00
46095;BME280;31832;50.746;-2.716;2024-02-21T07:02:50;-16034.76;;;5.24;100.00
46095;BME280;31832;50.746;-2.716;2024-02-21T07:05:15;-16037.19;;;5.60;100.00
46095;BME280;31832;50.746;-2.716;2024-02-21T07:07:41;-16036.05;;;5.55;100.00
46095;BME280;31832;50.746;-2.716;2024-02-21T07:10:07;-16036.33;;;5.56;100.00
46095;BME280;31832;50.746;-2.716;2024-02-21T07:12:31;-16046.92;;;5.62;100.00
46095;BME280;31832;50.746;-2.716;2024-02-21T07:14:57;-16048.53;;;5.71;100.00
46095;BME280;31832;50.746;-2.716;2024-02-21T07:17:22;-16034.22;;;5.45;100.00
46095;BME280;31832;50.746;-2.716;2024-02-21T07:19:47;-16029.29;;;5.20;100.00
46095;BME280;31832;50.746;-2.716;2024-02-21T07:22:13;-16027.94;;;5.13;100.00
46095;BME280;31832;50.746;-2.716;2024-02-21T07:24:38;-16038.26;;;5.42;100.00
46095;BME280;31832;50.746;-2.716;2024-02-21T07:27:04;-16035.08;;;5.26;100.00
46095;BME280;31832;50.746;-2.716;2024-02-21T07:29:29;-16035.69;;;5.29;100.00
46095;BME280;31832;50.746;-2.716;2024-02-21T07:31:54;-16034.32;;;4.98;100.00
46095;BME280;31832;50.746;-2.716;2024-02-21T07:34:20;-16035.24;;;5.27;100.00
46095;BME280;31832;50.746;-2.716;2024-02-21T07:36:45;-16036.69;;;5.58;100.00
46095;BME280;31832;50.746;-2.716;2024-02-21T07:39:11;-16034.89;;;5.49;100.00
46095;BME280;31832;50.746;-2.716;2024-02-21T07:41:36;-16030.80;;;5.28;100.00
46095;BME280;31832;50.746;-2.716;2024-02-21T07:44:01;-16031.14;;;5.29;100.00
46095;BME280;31832;50.746;-2.716;2024-02-21T07:46:27;-16041.16;;;5.57;100.00
46095;BME280;31832;50.746;-2.716;2024-02-21T07:48:52;-16040.13;;;5.52;100.00
46095;BME280;31832;50.746;-2.716;2024-02-21T07:51:17;-16040.08;;;5.27;100.00
46095;BME280;31832;50.746;-2.716;2024-02-21T07:53:44;-16035.90;;;5.54;100.00
46095;BME280;31832;50.746;-2.716;2024-02-21T07:56:13;-16028.48;;;5.16;100.00
46095;BME280;31832;50.746;-2.716;2024-02-21T07:58:33;-16030.67;;;5.03;100.00
46095;BME280;31832;50.746;-2.716;2024-02-21T08:00:59;-16027.88;;;5.13;100.00
46095;BME280;31832;50.746;-2.716;2024-02-21T08:03:24;-16038.52;;;5.67;100.00
46095;BME280;31832;50.746;-2.716;2024-02-21T08:05:50;-16026.69;;;5.07;100.00
46095;BME280;31832;50.746;-2.716;2024-02-21T08:08:15;-16022.57;;;5.10;100.00
46095;BME280;31832;50.746;-2.716;2024-02-21T08:10:40;-16021.90;;;5.30;100.00
46095;BME280;31832;50.746;-2.716;2024-02-21T08:13:06;-16028.48;;;5.40;100.00
46095;BME280;31832;50.746;-2.716;2024-02-21T08:15:32;-16027.36;;;5.34;100.00
46095;BME280;31832;50.746;-2.716;2024-02-21T08:17:58;-16028.68;;;5.17;100.00
46095;BME280;31832;50.746;-2.716;2024-02-21T08:20:24;-16029.74;;;5.22;100.00
46095;BME280;31832;50.746;-2.716;2024-02-21T08:22:49;-16033.51;;;5.42;100.00
46095;BME280;31832;50.746;-2.716;2024-02-21T08:25:14;-16033.36;;;5.41;100.00
46095;BME280;31832;50.746;-2.716;2024-02-21T08:27:40;-16033.75;;;5.67;100.00
46095;BME280;31832;50.746;-2.716;2024-02-21T08:30:06;-16028.77;;;5.41;100.00
46095;BME280;31832;50.746;-2.716;2024-02-21T08:32:30;-16030.80;;;5.28;100.00
46095;BME280;31832;50.746;-2.716;2024-02-21T08:34:55;-16025.28;;;5.23;100.00
46095;BME280;31832;50.746;-2.716;2024-02-21T08:37:21;-16027.14;;;5.33;100.00
46095;BME280;31832;50.746;-2.716;2024-02-21T08:39:47;-16030.93;;;5.28;100.00
46095;BME280;31832;50.746;-2.716;2024-02-21T08:42:11;-16036.48;;;5.57;100.00
46095;BME280;31832;50.746;-2.716;2024-02-21T08:44:40;-16032.47;;;5.60;100.00
46095;BME280;31832;50.746;-2.716;2024-02-21T08:47:03;-16037.27;;;5.61;100.00
46095;BME280;31832;50.746;-2.716;2024-02-21T08:49:28;-16033.31;;;5.88;100.00
46095;BME280;31832;50.746;-2.716;2024-02-21T08:51:54;-16028.21;;;5.38;100.00
46095;BME280;31832;50.746;-2.716;2024-02-21T08:54:19;-16034.20;;;5.45;100.00
46095;BME280;31832;50.746;-2.716;2024-02-21T08:56:45;-16025.46;;;5.48;100.00
46095;BME280;31832;50.746;-2.716;2024-02-21T08:59:11;-16036.78;;;5.58;100.00
46095;BME280;31832;50.746;-2.716;2024-02-21T09:01:37;-16040.64;;;5.78;100.00
46095;BME280;31832;50.746;-2.716;2024-02-21T09:04:02;-16042.34;;;5.87;100.00
46095;BME280;31832;50.746;-2.716;2024-02-21T09:06:27;-16036.96;;;5.59;100.00
46095;BME280;31832;50.746;-2.716;2024-02-21T09:08:52;-16038.77;;;5.68;100.00
46095;BME280;31832;50.746;-2.716;2024-02-21T09:11:17;-16045.38;;;5.78;100.00
46095;BME280;31832;50.746;-2.716;2024-02-21T09:13:43;-16035.63;;;5.29;100.00
46095;BME280;31832;50.746;-2.716;2024-02-21T09:18:33;-16043.71;;;5.70;100.00
46095;BME280;31832;50.746;-2.716;2024-02-21T09:21:00;-16039.30;;;5.23;100.00
46095;BME280;31832;50.746;-2.716;2024-02-21T09:23:26;-16042.56;;;5.88;100.00
46095;BME280;31832;50.746;-2.716;2024-02-21T09:25:51;-16036.87;;;5.59;100.00
46095;BME280;31832;50.746;-2.716;2024-02-21T09:28:16;-16035.27;;;5.51;100.00
46095;BME280;31832;50.746;-2.716;2024-02-21T09:30:41;-16038.31;;;5.66;100.00
46095;BME280;31832;50.746;-2.716;2024-02-21T09:33:07;-16044.88;;;5.76;100.00
46095;BME280;31832;50.746;-2.716;2024-02-21T09:35:32;-16037.32;;;5.37;100.00
46095;BME280;31832;50.746;-2.716;2024-02-21T09:37:57;-16036.36;;;5.32;100.00
46095;BME280;31832;50.746;-2.716;2024-02-21T09:40:23;-16046.42;;;5.60;100.00
46095;BME280;31832;50.746;-2.716;2024-02-21T09:42:48;-16044.84;;;5.52;100.00
46095;BME280;31832;50.746;-2.716;2024-02-21T09:45:19;-16054.19;;;6.00;100.00
46095;BME280;31832;50.746;-2.716;2024-02-21T09:47:56;-16043.64;;;5.46;100.00
46095;BME280;31832;50.746;-2.716;2024-02-21T09:50:05;-16034.77;;;5.24;100.00
46095;BME280;31832;50.746;-2.716;2024-02-21T09:52:29;-16027.10;;;5.33;100.00
46095;BME280;31832;50.746;-2.716;2024-02-21T09:54:54;-16030.39;;;5.02;100.00
46095;BME280;31832;50.746;-2.716;2024-02-21T09:57:20;-16023.48;;;5.14;100.00
46095;BME280;31832;50.746;-2.716;2024-02-21T09:59:45;-16030.33;;;5.73;100.00
46095;BME280;31832;50.746;-2.716;2024-02-21T10:02:11;-16027.01;;;5.32;100.00
46095;BME280;31832;50.746;-2.716;2024-02-21T10:04:47;-16032.14;;;5.35;100.00
46095;BME280;31832;50.746;-2.716;2024-02-21T10:07:12;-16023.46;;;5.38;100.00
46095;BME280;31832;50.746;-2.716;2024-02-21T10:09:27;-16025.29;;;5.47;100.00
46095;BME280;31832;50.746;-2.716;2024-02-21T10:11:52;-16028.52;;;5.16;100.00
46095;BME280;31832;50.746;-2.716;2024-02-21T10:14:18;-16031.59;;;5.32;100.00
46095;BME280;31832;50.746;-2.716;2024-02-21T10:16:44;-16031.65;;;5.32;100.00
46095;BME280;31832;50.746;-2.716;2024-02-21T10:19:17;-16029.79;;;5.23;100.00
46095;BME280;31832;50.746;-2.716;2024-02-21T10:21:34;-16036.59;;;5.57;100.00
46095;BME280;31832;50.746;-2.716;2024-02-21T10:23:59;-16057.99;;;6.19;100.00
46095;BME280;31832;50.746;-2.716;2024-02-21T10:26:24;-16050.29;;;5.56;100.00
46095;BME280;31832;50.746;-2.716;2024-02-21T10:28:50;-16049.99;;;5.78;100.00
46095;BME280;31832;50.746;-2.716;2024-02-21T10:31:22;-16044.91;;;5.52;100.00
46095;BME280;31832;50.746;-2.716;2024-02-21T10:33:40;-16040.20;;;5.76;100.00
46095;BME280;31832;50.746;-2.716;2024-02-21T10:36:10;-16049.66;;;5.76;100.00
46095;BME280;31832;50.746;-2.716;2024-02-21T10:38:31;-16042.07;;;5.85;100.00
46095;BME280;31832;50.746;-2.716;2024-02-21T10:40:57;-16053.08;;;5.94;100.00
46095;BME280;31832;50.746;-2.716;2024-02-21T10:43:22;-16054.27;;;6.00;100.00
46095;BME280;31832;50.746;-2.716;2024-02-21T10:45:49;-16044.02;;;5.95;100.00
46095;BME280;31832;50.746;-2.716;2024-02-21T10:48:14;-16048.74;;;5.72;100.00
46095;BME280;31832;50.746;-2.716;2024-02-21T10:50:50;-16051.47;;;5.86;100.00
46095;BME280;31832;50.746;-2.716;2024-02-21T10:53:09;-16043.37;;;5.92;100.00
46095;BME280;31832;50.746;-2.716;2024-02-21T10:55:36;-16037.20;;;5.60;100.00
46095;BME280;31832;50.746;-2.716;2024-02-21T10:57:55;-16045.57;;;6.03;100.00
46095;BME280;31832;50.746;-2.716;2024-02-21T11:00:20;-16056.22;;;6.10;100.00
46095;BME280;31832;50.746;-2.716;2024-02-21T11:02:45;-16048.43;;;5.70;100.00
46095;BME280;31832;50.746;-2.716;2024-02-21T11:05:16;-16059.40;;;6.26;100.00
46095;BME280;31832;50.746;-2.716;2024-02-21T11:07:37;-16064.99;;;6.55;100.00
46095;BME280;31832;50.746;-2.716;2024-02-21T11:10:01;-16069.31;;;6.29;100.00
46095;BME280;31832;50.746;-2.716;2024-02-21T11:12:26;-16052.45;;;5.91;100.00
46095;BME280;31832;50.746;-2.716;2024-02-21T11:14:51;-16058.55;;;6.22;100.00
46095;BME280;31832;50.746;-2.716;2024-02-21T11:17:17;-16050.18;;;5.79;100.00
46095;BME280;31832;50.746;-2.716;2024-02-21T11:19:42;-16065.68;;;6.58;100.00
46095;BME280;31832;50.746;-2.716;2024-02-21T11:22:15;-16065.74;;;6.59;100.00
46095;BME280;31832;50.746;-2.716;2024-02-21T11:24:33;-16072.29;;;6.92;100.00
46095;BME280;31832;50.746;-2.716;2024-02-21T11:27:08;-16068.77;;;6.74;100.00
46095;BME280;31832;50.746;-2.716;2024-02-21T11:29:24;-16062.72;;;6.43;100.00
46095;BME280;31832;50.746;-2.716;2024-02-21T11:31:49;-16052.16;;;5.89;100.00
46095;BME280;31832;50.746;-2.716;2024-02-21T11:34:17;-16056.69;;;6.12;100.00
46095;BME280;31832;50.746;-2.716;2024-02-21T11:36:46;-16064.04;;;6.50;100.00
46095;BME280;31832;50.746;-2.716;2024-02-21T11:39:05;-16068.54;;;6.49;100.00
46095;BME280;31832;50.746;-2.716;2024-02-21T11:41:31;-16067.49;;;6.20;100.00
46095;BME280;31832;50.746;-2.716;2024-02-21T11:43:57;-16061.85;;;6.39;100.00
46095;BME280;31832;50.746;-2.716;2024-02-21T11:46:22;-16077.19;;;6.93;100.00
46095;BME280;31832;50.746;-2.716;2024-02-21T11:48:48;-16069.11;;;6.52;100.00
46095;BME280;31832;50.746;-2.716;2024-02-21T11:51:21;-16065.84;;;6.35;100.00
46095;BME280;31832;50.746;-2.716;2024-02-21T11:53:40;-16076.30;;;6.89;100.00
46095;BME280;31832;50.746;-2.716;2024-02-21T11:56:06;-16067.13;;;6.42;100.00
46095;BME280;31832;50.746;-2.716;2024-02-21T11:58:30;-16066.98;;;6.65;100.00
46095;BME280;31832;50.746;-2.716;2024-02-21T12:00:55;-16063.46;;;6.47;100.00
46095;BME280;31832;50.746;-2.716;2024-02-21T12:03:20;-16071.05;;;6.86;100.00
46095;BME280;31832;50.746;-2.716;2024-02-21T12:05:47;-16080.45;;;7.10;100.00
46095;BME280;31832;50.746;-2.716;2024-02-21T12:08:12;-16072.82;;;6.71;100.00
46095;BME280;31832;50.746;-2.716;2024-02-21T12:10:37;-16075.02;;;6.82;100.00
46095;BME280;31832;50.746;-2.716;2024-02-21T12:13:07;-16063.21;;;6.46;100.00
46095;BME280;31832;50.746;-2.716;2024-02-21T12:15:28;-16070.53;;;6.83;100.00
46095;BME280;31832;50.746;-2.716;2024-02-21T12:17:55;-16072.30;;;6.92;100.00
46095;BME280;31832;50.746;-2.716;2024-02-21T12:20:29;-16066.12;;;6.61;100.00
46095;BME280;31832;50.746;-2.716;2024-02-21T12:22:45;-16066.01;;;6.60;100.00
46095;BME280;31832;50.746;-2.716;2024-02-21T12:25:16;-16079.81;;;7.07;100.00
46095;BME280;31832;50.746;-2.716;2024-02-21T12:27:35;-16070.93;;;6.85;100.00
46095;BME280;31832;50.746;-2.716;2024-02-21T12:30:00;-16078.85;;;6.78;100.00
46095;BME280;31832;50.746;-2.716;2024-02-21T12:32:25;-16091.85;;;7.44;100.00